Tiempo atmosférico en la estación meteorológica de San Sebastián De La Gomera, Santa Cruz de Tenerife (15 m.)



Fecha
DESCASC
Temp. máxima en grados centígrados (hora)
DESCASC
Temp. mínima en grados centígrados (hora)
DESCASC
Temp. media en grados centígrados
DESCASC
Racha de viento máxima en m/sg (hora)
DESCASC
Velocidad máxima media en intervalos de 10 minutos(hora)
DESCASC
Precipitaciones diarias en mm
DESCASC
Precipitaciones de 00:00 a 06:00 en mm
DESCASC
Precipitaciones de 06:00 a 12:00 en mm
DESCASC
Precipitaciones de 12:00 a 18:00 en mm
DESCASC
Precipitaciones de 18:00 a 24:00 en mm
DESCASC
18-08-2019 33.1 (01:30) 24.5 (06:10) 28.8 16.67 (03:30) 6.11 (03:30) 0 0 0 0 0
17-08-2019 32.1 (02:50) 23.6 (00:40) 27.8 11.39 (03:50) 6.11 (04:00) 0 0 0 0 0
16-08-2019 29 (23:30) 23.8 (04:30) 26.4 13.33 (04:10) 8.33 (12:00) 0 0 0 0 0
15-08-2019 29.4 (13:20) 22.5 (00:00) 25.9 15.28 (11:00) 7.5 (11:00) 0 0 0 0 0
14-08-2019 26.9 (18:40) 22 (00:00) 24.4 15.83 (13:40) 8.61 (15:20) 0 0 0 0 0
13-08-2019 26.3 (15:10) 22.4 (00:00) 24.3 17.5 (18:00) 7.78 (18:00) 0 0 0 0 0
12-08-2019 26.7 (13:50) 22.8 (00:00) 24.8 18.61 (21:00) 7.5 (20:40) 0 0 0 0 0
11-08-2019 27.5 (14:40) 23.3 (00:00) 25.4 16.67 (08:30) 7.78 (17:50) 0 0 0 0 0
10-08-2019 29.1 (14:40) 21.5 (00:00) 25.3 14.72 (17:30) 8.33 (17:20) 0 0 0 0 0
09-08-2019 27.1 (14:30) 22.2 (00:00) 24.7 7.5 (02:30) 4.44 (02:40) 0 0 0 0 0
08-08-2019 26.1 (19:30) 20.8 (00:00) 23.4 6.67 (22:00) 4.72 (14:10) 0 0 0 0 0
07-08-2019 26.7 (15:20) 22.8 (00:00) 24.8 14.72 (01:30) 7.22 (01:30) 0 0 0 0 0
06-08-2019 27.4 (13:30) 22.7 (00:00) 25.1 15.28 (23:59) 7.22 (09:40) 0 0 0 0 0
05-08-2019 26.4 (12:10) 22.9 (00:00) 24.6 15.83 (21:20) 7.78 (22:10) 0 0 0 0 0
04-08-2019 27.2 (14:50) 21.8 (00:00) 24.5 15.56 (16:20) 6.67 (11:00) 0 0 0 0 0
03-08-2019 26.2 (14:00) 22 (00:00) 24.1 15.28 (13:40) 6.67 (13:30) 0 0 0 0 0
02-08-2019 26.2 (14:10) 21.6 (00:00) 23.9 13.33 (18:00) 6.11 (21:40) 0 0 0 0 0
01-08-2019 26.7 (17:10) 21.4 (00:00) 24.1 14.44 (04:20) 6.39 (22:20) 0 0 0 0 0
31-07-2019 25.4 (14:00) 21.4 (00:00) 23.4 17.22 (22:20) 7.78 (03:40) 0 0 0 0 0
30-07-2019 25.3 (16:30) 21.9 (00:00) 23.6 18.61 (11:50) 8.89 (11:50) 0 0 0 0 0
29-07-2019 26.1 (14:40) 22.2 (00:00) 24.2 18.89 (20:40) 8.89 (22:00) 0 0 0 0 0
28-07-2019 27.9 (15:10) 22 (00:00) 24.9 16.11 (05:50) 7.22 (05:10) 0 0 0 0 0
27-07-2019 25.8 (13:10) 22.3 (00:00) 24 18.61 (01:10) 8.33 (01:50) 0 0 0 0 0
26-07-2019 28.1 (12:20) 23.5 (00:00) 25.8 16.11 (11:30) 8.61 (20:40) 0 0 0 0 0
25-07-2019 30.5 (18:50) 23.7 (00:00) 27.1 15.28 (22:10) 8.33 (10:30) -- -- 0 0 0
24-07-2019 28.3 (18:50) 21.5 (00:00) 24.9 16.67 (11:30) 8.89 (12:50) 0 0 0 0 0

Gráficas

Temp. máximas Temp. mínimas Temp. medias Precipitaciones Rachas de viento máximas Velocidades máximas media en intervalos de 10 minutos

Datos horarios

Fecha y hora oficial Temperatura (ºC) Velocidad del viento (km/h) Dirección del viento Racha (km/h) Dirección de racha Precipitación (mm) Presión (hPa) Tendencia (hPa) Humedad (%)
2019-08-22 23:00:00 26.6 21 Norte 47 Norte 0 1010.5 0.9 49
2019-08-22 22:00:00 27.3 15 Norte 33 Norte 0 1010.1 0.4 45
2019-08-22 21:00:00 28 15 Norte 45 Nordeste 0 1009.6 -0.4 43
2019-08-22 20:00:00 28.1 14 Norte 35 Nordeste 0 1009.6 -0.6 48
2019-08-22 19:00:00 24.5 10 Sur 40 Nordeste 0 1009.7 -0.8 84
2019-08-22 18:00:00 25.1 16 Sur 46 Nordeste 0 1010 -1.3 84
2019-08-22 17:00:00 26.8 19 Norte 60 Norte 0 1010.2 -0.7 65
2019-08-22 16:00:00 25.1 31 Norte 60 Norte 0 1010.5 -0.2 73
2019-08-22 15:00:00 24.3 18 Sur 36 Nordeste 0 1011.3 0.3 87
2019-08-22 14:00:00 25.4 11 Sudeste 42 Norte 0 1010.9 -0.9 81
2019-08-22 13:00:00 26 30 Norte 49 Nordeste 0 1010.7 -0.6 63
2019-08-22 12:00:00 24.6 28 Norte 60 Nordeste 0 1011 -0.4 71
2019-08-22 11:00:00 25.7 19 Norte 37 Noroeste 0 1011.8 0.3 65
2019-08-22 10:00:00 24.5 21 Noroeste 51 Oeste 0 1011.3 0.5 69
2019-08-22 09:00:00 23 19 Noroeste 44 Noroeste 0 1011.4 1.1 77
2019-08-22 08:00:00 22.6 17 Norte 35 Oeste 0 1011.5 1.2 79
2019-08-22 07:00:00 22.9 17 Noroeste 39 Noroeste 0 1010.8 0.4 74
2019-08-22 06:00:00 22.9 14 Noroeste 40 Nordeste 0 1010.3 -0.9 74
2019-08-22 05:00:00 22.8 13 Norte 39 Noroeste 0 1010.3 -1.3 74
2019-08-22 04:00:00 22.9 19 Noroeste 44 Norte 0 1010.4 -1.8 74
2019-08-22 03:00:00 22.7 18 Noroeste 52 Noroeste 0 1011.2 -1.5 76
2019-08-22 02:00:00 22.7 28 Noroeste 56 Noroeste 0 1011.6 -1.1 78
2019-08-22 01:00:00 22.7 20 Noroeste 50 Noroeste 0 1012.2 -0.7 80
2019-08-22 00:00:00 22.7 18 Noroeste 52 Noroeste 0 1012.7 -0.4 79
2019-08-21 23:00:00 22.9 26 Noroeste 55 Noroeste 0 1012.7 -0.3 78
2019-08-21 22:00:00 23.1 19 Noroeste 43 Noroeste 0 1012.9 0.1 78
2019-08-21 21:00:00 23.2 20 Noroeste 46 Noroeste 0 1013.1 0.2 77
2019-08-21 20:00:00 24 18 Noroeste 49 Noroeste 0 1013 0 75
2019-08-21 19:00:00 25 21 Noroeste 47 Norte 0 1012.8 -0.2 72
2019-08-21 18:00:00 25.2 21 Noroeste 49 Noroeste 0 1012.9 -0.4 71
2019-08-21 17:00:00 24.9 24 Noroeste 53 Oeste 0 1013 -0.4 72
2019-08-21 16:00:00 25.6 21 Noroeste 46 Noroeste 0 1013 -1 71
2019-08-21 15:00:00 25.9 14 Noroeste 54 Oeste 0 1013.3 -1.2 74
2019-08-21 14:00:00 25.2 25 Noroeste 59 Noroeste 0 1013.4 -0.7 74
2019-08-21 13:00:00 25.1 24 Noroeste 54 Noroeste 0 1014 -0.3 75
2019-08-21 12:00:00 24.9 20 Noroeste 60 Norte 0 1014.5 0.3 77
2019-08-21 11:00:00 24.1 23 Norte 58 Nordeste 0 1014.1 0.1 79
2019-08-21 10:00:00 23.6 24 Norte 56 Norte 0 1014.3 0.5 81
2019-08-21 09:00:00 23.4 23 Norte 56 Norte 0 1014.2 0.8 82
2019-08-21 08:00:00 22.9 25 Norte 52 Noroeste 0 1014 0.8 84
2019-08-21 07:00:00 22.7 23 Norte 57 Noroeste 0 1013.8 -0.3 87
2019-08-21 06:00:00 22.7 22 Norte 63 Noroeste 0 1013.4 -1.4 86
2019-08-21 05:00:00 22.8 24 Norte 53 Noroeste 0 1013.2 -2.2 85
2019-08-21 04:00:00 22.9 18 Noroeste 45 Noroeste 0 1014.1 -1.5 86
2019-08-21 03:00:00 23.1 22 Norte 59 Norte 0 1014.8 -0.6 87
2019-08-21 02:00:00 23.2 25 Norte 51 Norte 0 1015.4 0.2 86
2019-08-21 01:00:00 23.1 26 Norte 51 Norte 0 1015.6 0.2 85
2019-08-21 00:00:00 23.7 18 Norte 49 Noroeste 0 1015.4 0.7 82
2019-08-20 23:00:00 23.6 22 Norte 46 Noroeste 0 1015.2 1.1 83
2019-08-20 22:00:00 23.9 13 Noroeste 44 Noroeste 0 1015.4 1.4 83
2019-08-20 21:00:00 24.4 12 Noroeste 33 Noroeste 0 1014.7 0.3 78
2019-08-20 20:00:00 26.2 8 Noroeste 29 Oeste 0 1014.1 -0.1 68
2019-08-20 19:00:00 26.9 3 Norte 19 Noroeste 0 1014 -0.5 69
2019-08-20 18:00:00 26 11 Sur 21 Sur 0 1014.4 -0.4 81
2019-08-20 17:00:00 25.1 15 Sur 19 Sur 0 1014.2 -0.9 89
2019-08-20 16:00:00 25 17 Sur 26 Sur 0 1014.5 -0.6 87
2019-08-20 15:00:00 24.8 17 Sur 25 Sur 0 1014.8 -1 87
2019-08-20 14:00:00 24.6 18 Sur 29 Sudeste 0 1015.1 0 90
2019-08-20 13:00:00 24.7 15 Sur 25 Sur 0 1015.1 0.9 85
2019-08-20 12:00:00 24.4 19 Sur 32 Oeste 0 1015.8 2.1 89
2019-08-20 11:00:00 27.8 9 Noroeste 36 Noroeste 0 1015.1 1.6 58
2019-08-20 10:00:00 26.3 12 Norte 39 Norte 0 1014.2 1.3 61
2019-08-20 09:00:00 25.6 19 Norte 39 Norte 0 1013.7 0.8 57
2019-08-20 08:00:00 23.5 3 Este 19 Nordeste 0 1013.5 0.7 82
2019-08-20 07:00:00 26.6 5 Norte 23 Norte 0 1012.9 0 47
2019-08-20 06:00:00 26.2 13 Norte 37 Norte 0 1012.9 -0.3 46
2019-08-20 05:00:00 24.6 4 Sudeste 35 Nordeste 0 1012.8 -1.2 80
2019-08-20 04:00:00 25.8 6 Sudeste 36 Oeste 0 1012.9 -1.5 67
2019-08-20 03:00:00 28.1 11 Norte 42 Oeste 0 1013.2 -1.5 32
2019-08-20 02:00:00 28.7 14 Noroeste 36 Noroeste 0 1014 -0.7 32
2019-08-20 01:00:00 26.7 8 Norte 25 Sudoeste 0 1014.4 0.1 47
2019-08-20 00:00:00 23.6 3 Nordeste 25 Nordeste 0 1014.7 1.1 86
2019-08-19 23:00:00 24.5 0 Calma 13 Sur 0 1014.7 1.5 94
2019-08-19 22:00:00 24.6 5 Sudeste 17 Sur 0 1014.3 1.4 93
2019-08-19 21:00:00 25.5 3 Sudeste 15 Este 0 1013.6 0.8 78
2019-08-19 20:00:00 25.3 9 Sur 18 Sur 0 1013.2 0 87
2019-08-19 19:00:00 25.4 13 Sur 19 Sur 0 1012.9 -0.2 90
2019-08-19 18:00:00 26.2 8 Sur 17 Sudeste 0 1012.8 -0.7 85
2019-08-19 17:00:00 26.2 12 Sudeste 20 Sudeste 0 1013.2 -0.6 90
2019-08-19 16:00:00 26.6 9 Sudeste 21 Sudeste 0 1013.1 -0.8 85
2019-08-19 15:00:00 26.1 12 Sur 21 Sur 0 1013.5 0.1 81
2019-08-19 14:00:00 26.5 9 Sudeste 16 Sudeste 0 1013.8 0.7 81
2019-08-19 13:00:00 25.9 11 Sudeste 20 Sur 0 1013.9 1.1 86
2019-08-19 12:00:00 26.1 9 Sudeste 17 Sur 0 1013.4 1.5 87
2019-08-19 11:00:00 25.4 10 Sur 14 Sur 0 1013.1 1.8 85
2019-08-19 10:00:00 25.2 8 Sudeste 15 Sur 0 1012.8 2.2 90
2019-08-19 09:00:00 25.3 4 Sudeste 29 Sur 0 1011.9 2 90
2019-08-19 08:00:00 27.7 6 Este 30 Sudeste 0 1011.3 1.6 84
2019-08-19 07:00:00 26.9 4 Sudeste 42 Noroeste 0 1010.6 0.3 72
2019-08-19 06:00:00 32.5 17 Noroeste 45 Nordeste 0 1009.9 -0.6 26
2019-08-19 05:00:00 32.6 19 Noroeste 63 Noroeste 0 1009.7 -1.3 27
2019-08-19 04:00:00 32 17 Norte 44 Norte 0 1010.3 -1.1 28
2019-08-19 03:00:00 32.3 18 Norte 44 Norte 0 1010.5 -1.1 29
2019-08-19 02:00:00 33.4 16 Norte 40 Norte 0 1011 -0.5 27
2019-08-19 01:00:00 25 0 Calma 14 Nordeste 0 1011.4 0.9 89
2019-08-19 00:00:00 26.1 7 Este 24 Sur 0 1011.6 1.3 80
2019-08-18 23:00:00 26.3 4 Este 26 Noroeste 0 1011.5 1.2 78
2019-08-18 22:00:00 31.9 6 Noroeste 27 Noroeste 0 1010.5 0.3 45
2019-08-18 21:00:00 26.2 2 Este 10 Sur 0 1010.3 -0.3 81
2019-08-18 20:00:00 27.6 5 Sudeste 18 Sur 0 1010.3 -0.3 72
2019-08-18 19:00:00 27.9 10 Sur 16 Sur 0 1010.2 -0.7 70
2019-08-18 18:00:00 28.3 7 Sudeste 19 Sudeste 0 1010.6 -0.5 78
2019-08-18 17:00:00 27.2 14 Sur 17 Sur 0 1010.6 -0.8 81
2019-08-18 16:00:00 27.8 14 Sur 23 Sur 0 1010.9 -0.4 73
2019-08-18 15:00:00 28.2 11 Sudeste 18 Sur 0 1011.1 -0.6 74
2019-08-18 14:00:00 28.7 6 Sudeste 24 Sur 0 1011.4 -0.1 70
2019-08-18 13:00:00 27.6 9 Sudeste 15 Sur 0 1011.3 0 69
2019-08-18 12:00:00 28 3 Sudeste 24 Sur 0 1011.7 1.2 72
2019-08-18 11:00:00 26.7 12 Sudeste 18 Sur 0 1011.5 1.8 80
2019-08-18 10:00:00 26 13 Sur 18 Sur 0 1011.3 2.6 81
2019-08-18 09:00:00 26.3 6 Este 21 Sudeste 0 1010.5 1.7 77
2019-08-18 08:00:00 26.2 6 Este 39 Norte 0 1009.7 1 74
2019-08-18 07:00:00 32.1 18 Norte 34 Norte 0 1008.7 -0.3 36
2019-08-18 06:00:00 25.2 8 Sudeste 24 Nordeste 0 1008.8 0.2 86
2019-08-18 05:00:00 31 5 Norte 41 Oeste 0 1008.7 -0.4 40
2019-08-18 04:00:00 31.9 18 Noroeste 60 Oeste 0 1009 -0.3 37
2019-08-18 03:00:00 30.8 19 Noroeste 45 Noroeste 0 1008.6 -0.9 41
2019-08-18 02:00:00 31.6 17 Norte 40 Noroeste 0 1009.1 -0.8 38
2019-08-18 01:00:00 31.3 14 Noroeste 38 Noroeste 0 1009.3 -0.3 41
2019-08-18 00:00:00 25.4 5 Sudeste 24 Sudeste 0 1009.5 0 86
2019-08-17 23:00:00 25 8 Sudeste 26 Sur 0 1009.9 0.4 89
2019-08-17 22:00:00 25.4 7 Sudeste 13 Sur 0 1009.6 0.2 87
2019-08-17 21:00:00 25.7 4 Sudeste 10 Sur 0 1009.5 -0.1 88
2019-08-17 20:00:00 26 8 Sur 12 Sur 0 1009.5 0 88
2019-08-17 19:00:00 27 4 Este 18 Sur 0 1009.4 0.1 86
2019-08-17 18:00:00 26.6 14 Sudeste 21 Sur 0 1009.6 -0.1 86
2019-08-17 17:00:00 27.9 10 Sudeste 16 Sur 0 1009.5 -0.6 75
2019-08-17 16:00:00 27.6 10 Sur 18 Sur 0 1009.3 -1.1 73
2019-08-17 15:00:00 27.2 9 Sudeste 18 Sudeste 0 1009.7 -0.9 81
2019-08-17 14:00:00 26.1 11 Sudeste 22 Sur 0 1010.1 0.2 90
2019-08-17 13:00:00 25.4 17 Sur 21 Sur 0 1010.4 0.8 91
2019-08-17 12:00:00 27.4 3 Este 22 Sur 0 1010.6 0.8 82
2019-08-17 11:00:00 28.1 17 Sur 22 Sur 0 1009.9 0.4 61
2019-08-17 10:00:00 28.1 4 Sur 8 Sudeste 0 1009.6 0.2 64
2019-08-17 09:00:00 25.7 2 Este 8 Noroeste 0 1009.8 0.6 75
2019-08-17 08:00:00 24.5 2 Noroeste 6 Este 0 1009.5 1.2 84
2019-08-17 07:00:00 24.6 0 Calma 12 Este 0 1009.4 1.7 86
2019-08-17 06:00:00 24.6 4 Este 24 Sudeste 0 1009.2 0.3 89
2019-08-17 05:00:00 25.4 7 Sudeste 33 Norte 0 1008.3 -0.9 79
2019-08-17 04:00:00 31.9 22 Norte 41 Noroeste 0 1007.7 -2.2 41
2019-08-17 03:00:00 27 7 Este 36 Nordeste 0 1008.9 -1.3 63
2019-08-17 02:00:00 25.7 6 Sudeste 25 Sudeste 0 1009.2 -1.2 74
2019-08-17 01:00:00 24.8 5 Este 24 Nordeste 0 1009.9 -0.2 90
2019-08-17 00:00:00 25.5 4 Este 31 Nordeste 0 1010.2 0.4 84
2019-08-16 23:00:00 24.9 0 Calma 18 Sur 0 1010.4 0.9 85
2019-08-16 22:00:00 25.2 0 Calma 21 Sur 0 1010.1 0.4 82
2019-08-16 21:00:00 25.7 11 Sur 20 Sur 0 1009.8 -0.9 76
2019-08-16 20:00:00 26.3 5 Sudeste 26 Nordeste 0 1009.5 -1 76
2019-08-16 19:00:00 28.2 17 Norte 37 Nordeste 0 1009.7 -1.1 72
2019-08-16 18:00:00 26 12 Sur 25 Sur 0 1010.7 -0.3 86
2019-08-16 17:00:00 26.7 6 Sur 28 Sur 0 1010.5 -0.6 78
2019-08-16 16:00:00 25.8 18 Sur 29 Sur 0 1010.8 -1.3 83
2019-08-16 15:00:00 25.4 16 Sur 30 Sur 0 1011 0 83
2019-08-16 14:00:00 25.5 15 Sur 29 Sur 0 1011.1 -0.4 79
2019-08-16 13:00:00 25.9 13 Sur 40 Nordeste 0 1012.1 0.6 75
2019-08-16 12:00:00 27.9 30 Norte 48 Norte 0 1011 -0.8 65
2019-08-16 11:00:00 25.9 28 Norte 47 Nordeste 0 1011.5 0.2 69
2019-08-16 10:00:00 26 23 Norte 41 Norte 0 1011.5 -0.1 71
2019-08-16 09:00:00 25.1 7 Norte 33 Norte 0 1011.8 1.1 74
2019-08-16 08:00:00 24.2 15 Norte 37 Norte 0 1011.3 0.2 77
2019-08-16 07:00:00 24.1 22 Norte 41 Nordeste 0 1011.6 0.1 78
2019-08-16 06:00:00 24.3 26 Norte 44 Norte 0 1010.7 -1.2 78
2019-08-16 05:00:00 24.1 23 Norte 48 Noroeste 0 1011.1 -1.5 78
2019-08-16 04:00:00 24.1 29 Norte 48 Norte 0 1011.5 -1.7 77
2019-08-16 03:00:00 24.2 25 Norte 39 Norte 0 1011.9 -1.3 78
2019-08-16 02:00:00 24.4 17 Norte 37 Noroeste 0 1012.6 -0.8 77
2019-08-16 01:00:00 24.6 17 Norte 41 Noroeste 0 1013.2 0.2 77
2019-08-16 00:00:00 24.7 15 Norte 39 Norte 0 1013.2 0.6 76
2019-08-15 23:00:00 24.7 17 Noroeste 40 Norte 0 1013.4 0.8 75
2019-08-15 22:00:00 25 16 Norte 43 Norte 0 1013 0.3 72
2019-08-15 21:00:00 25.3 18 Norte 42 Norte 0 1012.6 -0.3 72
2019-08-15 20:00:00 26 16 Norte 49 Nordeste 0 1012.6 -0.4 70
2019-08-15 19:00:00 26.9 20 Norte 44 Norte 0 1012.7 -0.5 67
2019-08-15 18:00:00 28.2 13 Norte 44 Norte 0 1012.9 -0.9 62
2019-08-15 17:00:00 27.4 0 Calma 24 Sur 0 1013 -1.4 70
2019-08-15 16:00:00 27.2 8 Este 39 Nordeste 0 1013.2 -1.1 70
2019-08-15 15:00:00 27.8 18 Norte 45 Norte 0 1013.8 -1 63
2019-08-15 14:00:00 27.1 0 Calma 42 Norte 0 1014.4 -0.4 64
2019-08-15 13:00:00 27.6 16 Norte 50 Nordeste 0 1014.3 0 64
2019-08-15 12:00:00 26.7 15 Norte 51 Norte 0 1014.8 0.6 66
2019-08-15 11:00:00 24.5 27 Norte 55 Nordeste 0 1014.8 0.6 71
2019-08-15 10:00:00 24.9 17 Norte 41 Noroeste 0 1014.3 0.3 66
2019-08-15 09:00:00 23.9 17 Norte 34 Norte 0 1014.2 0.5 67
2019-08-15 08:00:00 22.7 18 Norte 44 Norte 0 1014.2 0.3 73
2019-08-15 07:00:00 22.9 21 Norte 37 Norte 0 1014 -0.5 71
2019-08-15 06:00:00 23 21 Norte 45 Oeste 0 1013.7 -1.1 71
2019-08-15 05:00:00 23 18 Norte 40 Noroeste 0 1013.9 -1.3 71
2019-08-15 04:00:00 22.8 19 Noroeste 44 Noroeste 0 1014.5 -1.3 75
2019-08-15 03:00:00 22.9 15 Noroeste 32 Noroeste 0 1014.8 -1.1 74
2019-08-15 02:00:00 23.2 16 Noroeste 38 Noroeste 0 1015.2 -0.8 74
2019-08-15 01:00:00 23.2 19 Noroeste 44 Noroeste 0 1015.8 0.4 74
2019-08-15 00:00:00 23.3 17 Noroeste 45 Noroeste 0 1015.9 0.8 74
2019-08-14 23:00:00 23.7 17 Norte 40 Noroeste 0 1016 1.4 71
2019-08-14 22:00:00 23.9 19 Noroeste 47 Norte 0 1015.4 0.7 72
2019-08-14 21:00:00 24.1 15 Noroeste 34 Noroeste 0 1015.1 0.2 73
2019-08-14 20:00:00 25 12 Noroeste 28 Noroeste 0 1014.6 -0.5 71
2019-08-14 19:00:00 26.4 10 Norte 46 Norte 0 1014.7 0 67
2019-08-14 18:00:00 26 19 Norte 48 Norte 0 1014.9 -0.2 72
2019-08-14 17:00:00 25.1 24 Norte 57 Nordeste 0 1015.1 -0.5 72
2019-08-14 16:00:00 25.4 24 Norte 54 Nordeste 0 1014.7 -2 69
2019-08-14 15:00:00 25.2 26 Norte 56 Norte 0 1015.1 -1.6 69
2019-08-14 14:00:00 25.2 22 Norte 57 Noroeste 0 1015.6 -1 69
2019-08-14 13:00:00 24.6 18 Noroeste 47 Norte 0 1016.7 0.3 68
2019-08-14 12:00:00 25.5 17 Noroeste 46 Noroeste 0 1016.7 0.8 71
2019-08-14 11:00:00 24.3 21 Noroeste 51 Noroeste 0 1016.6 1.1 72
2019-08-14 10:00:00 23.7 16 Noroeste 35 Norte 0 1016.4 1.3 75
2019-08-14 09:00:00 22.9 14 Norte 36 Norte 0 1015.9 0.7 77
2019-08-14 08:00:00 22.1 15 Noroeste 33 Noroeste 0 1015.5 0.7 79
2019-08-14 07:00:00 22.1 16 Noroeste 36 Noroeste 0 1015.1 -0.1 77
2019-08-14 06:00:00 22.2 15 Noroeste 42 Noroeste 0 1015.2 -0.3 77
2019-08-14 05:00:00 22.3 21 Noroeste 38 Noroeste 0 1014.8 -1.3 77
2019-08-14 04:00:00 22.3 18 Noroeste 42 Noroeste 0 1015.2 -1.4 76
2019-08-14 03:00:00 22.4 19 Noroeste 45 Noroeste 0 1015.5 -1.4 77
2019-08-14 02:00:00 22.5 18 Norte 53 Norte 0 1016.1 -0.4 79
2019-08-14 01:00:00 22.4 18 Norte 41 Norte 0 1016.6 0.6 80
2019-08-14 00:00:00 22.6 19 Norte 47 Noroeste 0 1016.9 1.3 80
2019-08-13 23:00:00 22.9 16 Noroeste 49 Nordeste 0 1016.5 1.4 78
2019-08-13 22:00:00 22.9 16 Norte 45 Noroeste 0 1016 1.2 80
2019-08-13 21:00:00 23.1 15 Noroeste 45 Noroeste 0 1015.6 0.3 77
2019-08-13 20:00:00 23.4 23 Noroeste 54 Noroeste 0 1015.1 0.3 78
2019-08-13 19:00:00 24.2 22 Noroeste 55 Noroeste 0 1014.8 -0.4 75
2019-08-13 18:00:00 24.8 28 Noroeste 63 Oeste 0 1015.3 -0.5 72
2019-08-13 17:00:00 25.3 22 Noroeste 55 Noroeste 0 1014.8 -1.2 71
2019-08-13 16:00:00 25.4 22 Noroeste 54 Noroeste 0 1015.2 -1.1 70
2019-08-13 15:00:00 25.3 21 Noroeste 48 Noroeste 0 1015.8 -0.8 72
2019-08-13 14:00:00 25.9 19 Noroeste 42 Norte 0 1016 0.2 67
2019-08-13 13:00:00 25.6 15 Noroeste 55 Noroeste 0 1016.3 0.4 69
2019-08-13 12:00:00 25 19 Noroeste 50 Oeste 0 1016.6 1.1 73
2019-08-13 11:00:00 24.5 20 Noroeste 48 Noroeste 0 1015.8 0.6 73
2019-08-13 10:00:00 23.9 18 Norte 47 Noroeste 0 1015.9 0.8 76
2019-08-13 09:00:00 23.3 16 Noroeste 50 Noroeste 0 1015.5 0.9 77
2019-08-13 08:00:00 22.5 14 Noroeste 51 Noroeste 0 1015.2 0.9 80
2019-08-13 07:00:00 22.6 17 Noroeste 49 Norte 0 1015.1 -0.3 80
2019-08-13 06:00:00 22.6 17 Norte 57 Norte 0 1014.6 -1.2 81
2019-08-13 05:00:00 22.6 21 Norte 51 Norte 0 1014.3 -1.7 81
2019-08-13 04:00:00 22.8 14 Norte 48 Norte 0 1015.4 -0.8 79
2019-08-13 03:00:00 22.9 17 Norte 42 Norte 0 1015.8 -0.5 78
2019-08-13 02:00:00 23 16 Norte 45 Norte 0 1016 -0.2 75
2019-08-13 01:00:00 23.1 20 Norte 56 Norte 0 1016.2 0.7 77
2019-08-13 00:00:00 23.1 18 Norte 63 Norte 0 1016.3 0.8 77
2019-08-12 23:00:00 23.3 22 Norte 48 Noroeste 0 1016.2 1.5 77
2019-08-12 22:00:00 23.5 19 Norte 50 Noroeste 0 1015.5 1.5 76
2019-08-12 21:00:00 23.5 24 Norte 67 Nordeste 0 1015.5 1.1 80
2019-08-12 20:00:00 24.4 18 Norte 49 Nordeste 0 1014.7 0 74
2019-08-12 19:00:00 25.4 17 Noroeste 53 Norte 0 1014 -0.9 71
2019-08-12 18:00:00 25.2 19 Noroeste 51 Norte 0 1014.4 -0.9 71
2019-08-12 17:00:00 25.8 14 Noroeste 56 Noroeste 0 1014.7 -0.9 69
2019-08-12 16:00:00 26.1 17 Noroeste 45 Noroeste 0 1014.9 -1 69
2019-08-12 15:00:00 26.3 18 Noroeste 49 Noroeste 0 1015.3 -0.4 69
2019-08-12 14:00:00 26.2 19 Noroeste 51 Oeste 0 1015.6 0.1 69
2019-08-12 13:00:00 25.8 19 Noroeste 51 Noroeste 0 1015.9 0.8 71
2019-08-12 12:00:00 26.1 23 Norte 63 Nordeste 0 1015.7 0.7 69
2019-08-12 11:00:00 24.9 20 Norte 58 Norte 0 1015.5 0.8 73
2019-08-12 10:00:00 24.4 23 Noroeste 59 Norte 0 1015.1 0.7 77
2019-08-12 09:00:00 23.9 23 Noroeste 54 Noroeste 0 1015 0.9 79
2019-08-12 08:00:00 23.3 22 Noroeste 45 Norte 0 1014.7 0.6 81
2019-08-12 07:00:00 23.1 20 Noroeste 62 Noroeste 0 1014.4 0.2 83
2019-08-12 06:00:00 23.1 24 Noroeste 57 Noroeste 0 1014.1 -0.5 83
2019-08-12 05:00:00 23 21 Noroeste 59 Noroeste 0 1014.1 -1.5 83
2019-08-12 04:00:00 22.9 22 Noroeste 61 Norte 0 1014.2 -1.9 83
2019-08-12 03:00:00 23 20 Norte 50 Noroeste 0 1014.6 -1.9 81
2019-08-12 02:00:00 23.2 17 Noroeste 49 Norte 0 1015.6 -0.9 79
2019-08-12 01:00:00 23.2 19 Norte 46 Noroeste 0 1016.1 0.1 80
2019-08-12 00:00:00 23.3 17 Noroeste 42 Noroeste 0 1016.5 0.9 80
2019-08-11 23:00:00 23.5 20 Noroeste 51 Noroeste 0 1016.5 1.4 79
2019-08-11 22:00:00 23.6 20 Noroeste 49 Noroeste 0 1016 1.3 79
2019-08-11 21:00:00 23.8 20 Norte 48 Norte 0 1015.6 0.8 80
2019-08-11 20:00:00 24.4 21 Noroeste 47 Norte 0 1015.1 0 76
2019-08-11 19:00:00 25.7 21 Noroeste 57 Noroeste 0 1014.7 -0.7 73
2019-08-11 18:00:00 25.1 21 Norte 59 Norte 0 1014.8 -0.9 77
2019-08-11 17:00:00 25.3 23 Noroeste 58 Noroeste 0 1015.1 -1.1 79
2019-08-11 16:00:00 26.4 21 Noroeste 51 Noroeste 0 1015.4 -1.5 75
2019-08-11 15:00:00 27.1 17 Noroeste 48 Noroeste 0 1015.7 -1.3 73
2019-08-11 14:00:00 26.8 25 Noroeste 46 Noroeste 0 1016.2 -0.8 74
2019-08-11 13:00:00 26.2 18 Noroeste 45 Noroeste 0 1016.9 0.7 82
2019-08-11 12:00:00 25.4 14 Noroeste 43 Oeste 0 1017 0.8 87
2019-08-11 11:00:00 25.6 16 Norte 43 Noroeste 0 1017 1.1 84
2019-08-11 10:00:00 26.4 21 Noroeste 53 Nordeste 0 1016.2 1 79
2019-08-11 09:00:00 25.6 18 Noroeste 60 Nordeste 0 1016.2 1.1 79
2019-08-11 08:00:00 24.7 20 Norte 51 Noroeste 0 1015.9 0.6 84
2019-08-11 07:00:00 24.6 19 Norte 51 Norte 0 1015.2 -0.4 86
2019-08-11 06:00:00 25 20 Noroeste 55 Noroeste 0 1015.1 -0.6 83
2019-08-11 05:00:00 24.6 19 Noroeste 50 Noroeste 0 1015.3 -0.9 83
2019-08-11 04:00:00 24.4 21 Noroeste 49 Norte 0 1015.6 -1.1 82
2019-08-11 03:00:00 24.5 19 Noroeste 41 Noroeste 0 1015.7 -1.2 80
2019-08-11 02:00:00 24.4 19 Noroeste 44 Noroeste 0 1016.2 -0.5 83
2019-08-11 01:00:00 25 15 Norte 42 Noroeste 0 1016.7 0 79
2019-08-11 00:00:00 25.4 15 Noroeste 40 Noroeste 0 1016.9 0.2 79
2019-08-10 23:00:00 25.5 16 Noroeste 42 Noroeste 0 1016.7 0.1 78
2019-08-10 22:00:00 25.4 17 Noroeste 37 Norte 0 1016.7 0.5 79
2019-08-10 21:00:00 25.8 16 Norte 35 Norte 0 1016.7 0.5 78
2019-08-10 20:00:00 26.1 15 Norte 45 Nordeste 0 1016.6 -0.1 78
2019-08-10 19:00:00 26.2 23 Norte 47 Norte 0 1016.2 -0.7 78
2019-08-10 18:00:00 26.5 30 Norte 53 Norte 0 1016.2 -1.1 77
2019-08-10 17:00:00 27 28 Norte 49 Norte 0 1016.7 -0.6 75
2019-08-10 16:00:00 27.5 17 Noroeste 49 Norte 0 1016.9 -0.8 74
2019-08-10 15:00:00 27.2 23 Norte 45 Nordeste 0 1017.3 -0.9 72
2019-08-10 14:00:00 27.5 24 Norte 50 Nordeste 0 1017.3 -0.7 72
2019-08-10 13:00:00 27.3 21 Norte 48 Nordeste 0 1017.7 0.6 72
2019-08-10 12:00:00 24.7 13 Sur 26 Sur 0 1018.2 1.4 90
2019-08-10 11:00:00 24.4 11 Sur 17 Sur 0 1018 1.6 92
2019-08-10 10:00:00 24.4 9 Sudeste 19 Sur 0 1017.1 1.2 92
2019-08-10 09:00:00 23.8 11 Sur 18 Sur 0 1016.8 1.3 91
2019-08-10 08:00:00 24.1 2 Sur 22 Oeste 0 1016.4 0.9 89
2019-08-10 07:00:00 25.3 7 Norte 35 Noroeste 0 1015.9 0.4 62
2019-08-10 06:00:00 25.8 15 Norte 30 Noroeste 0 1015.5 -0.7 58
2019-08-10 05:00:00 25.4 13 Norte 35 Nordeste 0 1015.5 -1.3 62
2019-08-10 04:00:00 25.8 16 Norte 37 Norte 0 1015.5 -1.5 56
2019-08-10 03:00:00 26.1 15 Noroeste 40 Nordeste 0 1016.2 -1.2 51
2019-08-10 02:00:00 26.4 9 Norte 28 Nordeste 0 1016.8 -0.5 49
2019-08-10 01:00:00 23.1 4 Este 17 Sur 0 1017 -0.1 94
2019-08-10 00:00:00 23.4 5 Sudoeste 14 Sur 0 1017.4 0.7 93
2019-08-09 23:00:00 24.1 3 Sudoeste 15 Noroeste 0 1017.3 0.9 90
2019-08-09 22:00:00 23.7 0 Calma 6 Sur 0 1017.1 0.9 92
2019-08-09 21:00:00 24 2 Este 10 Sur 0 1016.7 0.5 91
2019-08-09 20:00:00 24.1 9 Sur 13 Sur 0 1016.4 0 92
2019-08-09 19:00:00 25.7 5 Sudeste 15 Sur 0 1016.2 -0.6 87
2019-08-09 18:00:00 24.7 11 Sur 18 Sur 0 1016.2 -0.9 88
2019-08-09 17:00:00 26 6 Sudeste 14 Sur 0 1016.4 -0.5 85
2019-08-09 16:00:00 26.1 4 Sudeste 18 Sur 0 1016.8 0 83
2019-08-09 15:00:00 25.8 8 Este 25 Nordeste 0 1017.1 0.2 86
2019-08-09 14:00:00 26.6 5 Este 22 Sudeste 0 1016.9 0.6 80
2019-08-09 13:00:00 25.8 6 Sur 24 Sur 0 1016.8 0.8 80
2019-08-09 12:00:00 24.3 13 Sur 20 Sur 0 1016.9 1.6 90
2019-08-09 11:00:00 24.7 9 Sudeste 14 Sudeste 0 1016.3 1 86
2019-08-09 10:00:00 23.5 9 Sudeste 17 Sudeste 0 1016 1.1 93
2019-08-09 09:00:00 23.3 2 Noroeste 13 Sur 0 1015.3 0.2 91
2019-08-09 08:00:00 22.7 4 Sur 11 Sur 0 1015.3 0.3 93
2019-08-09 07:00:00 22.8 0 Calma 7 Sudeste 0 1014.9 -0.6 93
2019-08-09 06:00:00 23.1 0 Calma 13 Este 0 1015.1 -0.7 92
2019-08-09 05:00:00 23 0 Calma 13 Nordeste 0 1015 -1.6 86
2019-08-09 04:00:00 23.6 0 Calma 17 Norte 0 1015.5 -0.9 85
2019-08-09 03:00:00 23.7 12 Norte 27 Nordeste 0 1015.8 -0.6 79
2019-08-09 02:00:00 23.5 4 Norte 16 Nordeste 0 1016.6 0.6 83
2019-08-09 01:00:00 23.5 9 Norte 14 Nordeste 0 1016.4 1.1 84
2019-08-09 00:00:00 23.7 6 Nordeste 19 Nordeste 0 1016.4 1.2 87
2019-08-08 23:00:00 24 6 Nordeste 20 Norte 0 1016 1.8 86
2019-08-08 22:00:00 23.9 11 Nordeste 24 Norte 0 1015.3 1 87
2019-08-08 21:00:00 24.1 9 Nordeste 21 Nordeste 0 1015.2 1.3 87
2019-08-08 20:00:00 25.1 9 Nordeste 24 Este 0 1014.2 0 83
2019-08-08 19:00:00 25.8 4 Este 16 Sur 0 1014.3 -0.2 84
2019-08-08 18:00:00 24.8 11 Sur 21 Sur 0 1013.9 -0.9 85
2019-08-08 17:00:00 24.5 11 Sur 19 Sur 0 1014.2 -0.6 86
2019-08-08 16:00:00 25 7 Sur 18 Sur 0 1014.5 -0.7 84
2019-08-08 15:00:00 25.6 4 Sudeste 21 Sur 0 1014.8 -0.3 82
2019-08-08 14:00:00 24.1 15 Sur 21 Sur 0 1014.8 0 85
2019-08-08 13:00:00 24.9 7 Este 14 Este 0 1015.2 1 81
2019-08-08 12:00:00 24.4 8 Sudeste 16 Sudeste 0 1015.1 0.8 84
2019-08-08 11:00:00 24.1 8 Sudeste 18 Sur 0 1014.8 1 85
2019-08-08 10:00:00 23 14 Sur 18 Sur 0 1014.2 0.8 88
2019-08-08 09:00:00 22.4 2 Norte 8 Nordeste 0 1014.3 1.2 77
2019-08-08 08:00:00 21 6 Noroeste 11 Noroeste 0 1013.8 0.9 81
2019-08-08 07:00:00 21.4 0 Calma 14 Oeste 0 1013.4 0.2 87
2019-08-08 06:00:00 22 0 Calma 10 Este 0 1013.1 -0.6 88
2019-08-08 05:00:00 22.1 0 Calma 6 Sudoeste 0 1012.9 -1.3 89
2019-08-08 04:00:00 22.2 0 Calma 10 Nordeste 0 1013.2 -1.2 86
2019-08-08 03:00:00 22.6 0 Calma 6 Norte 0 1013.7 -0.8 89
2019-08-08 02:00:00 22.8 0 Calma 10 Sudeste 0 1014.2 -0.3 92
2019-08-08 01:00:00 23 0 Calma 13 Sur 0 1014.4 0.5 93
2019-08-08 00:00:00 23.1 6 Sudeste 12 Sudeste 0 1014.5 0.9 92
2019-08-07 23:00:00 23.9 4 Noroeste 22 Norte 0 1014.5 1.2 83
2019-08-07 22:00:00 23.8 3 Este 25 Nordeste 0 1013.9 0.6 83
2019-08-07 21:00:00 24.4 7 Norte 32 Norte 0 1013.6 -0.1 78
2019-08-07 20:00:00 24.7 18 Norte 39 Nordeste 0 1013.3 -0.9 75
2019-08-07 19:00:00 25.5 17 Norte 39 Nordeste 0 1013.3 -1.3 74
2019-08-07 18:00:00 26.3 11 Nordeste 29 Nordeste 0 1013.7 -0.6 72
2019-08-07 17:00:00 25.2 8 Sur 23 Sur 0 1014.2 -0.2 84
2019-08-07 16:00:00 24.3 15 Sur 32 Nordeste 0 1014.6 0.2 85
2019-08-07 15:00:00 25.5 21 Norte 41 Norte 0 1014.3 0.1 72
2019-08-07 14:00:00 26 22 Norte 42 Norte 0 1014.4 0 71
2019-08-07 13:00:00 26.2 14 Norte 48 Noroeste 0 1014.4 0.3 69
2019-08-07 12:00:00 25.2 24 Noroeste 46 Noroeste 0 1014.2 0.3 74
2019-08-07 11:00:00 25.4 21 Norte 43 Norte 0 1014.4 0.5 71
2019-08-07 10:00:00 24.6 18 Norte 41 Noroeste 0 1014.1 0.5 73
2019-08-07 09:00:00 24.2 16 Norte 28 Oeste 0 1013.9 0.8 73
2019-08-07 08:00:00 23.2 12 Noroeste 24 Norte 0 1013.9 0.8 77
2019-08-07 07:00:00 23 11 Noroeste 28 Noroeste 0 1013.6 0.4 79
2019-08-07 06:00:00 23 12 Noroeste 33 Noroeste 0 1013.1 -0.2 78
2019-08-07 05:00:00 23.1 14 Noroeste 35 Noroeste 0 1013.1 -0.7 77
2019-08-07 04:00:00 23.4 17 Norte 45 Nordeste 0 1013.2 -1.1 75
2019-08-07 03:00:00 23.6 19 Norte 44 Norte 0 1013.3 -1 75
2019-08-07 02:00:00 23.4 18 Norte 53 Norte 0 1013.8 -0.4 80
2019-08-07 01:00:00 23.4 19 Norte 47 Norte 0 1014.3 0.2 81
2019-08-07 00:00:00 23.4 22 Noroeste 55 Noroeste 0 1014.3 0.4 81
2019-08-06 23:00:00 23.3 20 Noroeste 50 Noroeste 0 1014.2 0.7 81
2019-08-06 22:00:00 23.5 21 Norte 50 Norte 0 1014.1 0.8 80
2019-08-06 21:00:00 23.8 18 Noroeste 45 Noroeste 0 1013.9 0.5 78
2019-08-06 20:00:00 24.4 18 Noroeste 44 Norte 0 1013.5 -0.1 78
2019-08-06 19:00:00 25.4 20 Noroeste 48 Nordeste 0 1013.3 -0.8 73
2019-08-06 18:00:00 26.1 19 Noroeste 45 Norte 0 1013.4 -1.2 73
2019-08-06 17:00:00 26.5 17 Norte 48 Nordeste 0 1013.6 -1.5 71
2019-08-06 16:00:00 26.4 15 Noroeste 46 Noroeste 0 1014.1 -1.4 69
2019-08-06 15:00:00 27.4 15 Noroeste 49 Norte 0 1014.6 -1.1 67
2019-08-06 14:00:00 26.7 14 Noroeste 46 Oeste 0 1015.1 -0.4 68
2019-08-06 13:00:00 26.6 14 Noroeste 43 Noroeste 0 1015.5 0.4 68
2019-08-06 12:00:00 25.7 18 Noroeste 42 Norte 0 1015.7 0.5 71
2019-08-06 11:00:00 24.8 18 Norte 42 Noroeste 0 1015.5 0.6 73
2019-08-06 10:00:00 24.3 19 Norte 51 Norte 0 1015.1 0.3 76
2019-08-06 09:00:00 23.1 18 Norte 39 Norte 0 1015.2 0.5 80
2019-08-06 08:00:00 22.8 14 Norte 37 Nordeste 0 1014.9 0.2 80
2019-08-06 07:00:00 22.9 16 Norte 40 Nordeste 0 1014.8 -0.2 80
2019-08-06 06:00:00 23.2 15 Noroeste 40 Noroeste 0 1014.7 -0.4 80
2019-08-06 05:00:00 22.8 19 Norte 50 Norte 0 1014.7 -0.9 83
2019-08-06 04:00:00 23 18 Norte 44 Norte 0 1015 -0.6 83
2019-08-06 03:00:00 23.1 18 Noroeste 45 Noroeste 0 1015.1 -0.5 81
2019-08-06 02:00:00 23.2 22 Noroeste 47 Norte 0 1015.6 -0.1 81
2019-08-06 01:00:00 23.2 19 Norte 45 Noroeste 0 1015.6 0.3 80
2019-08-06 00:00:00 23.7 17 Noroeste 41 Noroeste 0 1015.6 0.4 77
2019-08-05 23:00:00 23.5 27 Norte 50 Norte 0 1015.7 0.9 80
2019-08-05 22:00:00 23.4 21 Norte 57 Nordeste 0 1015.3 0.6 83
2019-08-05 21:00:00 23.6 19 Norte 50 Norte 0 1015.2 0.5 83
2019-08-05 20:00:00 24.7 16 Norte 39 Norte 0 1014.8 -0.5 75
2019-08-05 19:00:00 25.5 15 Norte 42 Noroeste 0 1014.7 -0.9 75
2019-08-05 18:00:00 25.5 20 Noroeste 49 Noroeste 0 1014.7 -1 74
2019-08-05 17:00:00 25.8 11 Noroeste 35 Norte 0 1015.3 -0.8 75
2019-08-05 16:00:00 25.3 15 Norte 44 Norte 0 1015.6 -0.8 75
2019-08-05 15:00:00 25.5 19 Norte 55 Nordeste 0 1015.7 -0.7 72
2019-08-05 14:00:00 24.6 24 Norte 41 Norte 0 1016.1 -0.1 73
2019-08-05 13:00:00 25.5 16 Norte 38 Noroeste 0 1016.4 0.8 73
2019-08-05 12:00:00 25.6 13 Noroeste 41 Norte 0 1016.4 0.6 75
2019-08-05 11:00:00 24.7 22 Norte 55 Norte 0 1016.2 0.6 80
2019-08-05 10:00:00 25.1 18 Norte 44 Norte 0 1015.6 0.3 71
2019-08-05 09:00:00 24.1 19 Norte 49 Norte 0 1015.8 0.4 75
2019-08-05 08:00:00 23.3 18 Norte 42 Noroeste 0 1015.6 0.2 80
2019-08-05 07:00:00 23.2 16 Norte 49 Norte 0 1015.3 -0.3 79
2019-08-05 06:00:00 23 21 Noroeste 47 Norte 0 1015.4 -0.9 81
2019-08-05 05:00:00 22.9 17 Noroeste 45 Norte 0 1015.4 -1 82
2019-08-05 04:00:00 23.3 17 Noroeste 46 Noroeste 0 1015.6 -1.1 79
2019-08-05 03:00:00 23 13 Norte 39 Norte 0 1016.3 -0.6 84
2019-08-05 02:00:00 23 17 Noroeste 42 Noroeste 0 1016.4 -0.2 83
2019-08-05 01:00:00 23.2 15 Noroeste 40 Norte 0 1016.7 0.7 80
2019-08-05 00:00:00 23.2 17 Norte 56 Norte 0 1016.9 0.9 79
2019-08-04 23:00:00 23.1 21 Norte 54 Norte 0 1016.6 0.7 81
2019-08-04 22:00:00 23.1 19 Norte 45 Noroeste 0 1016 0.7 81
2019-08-04 21:00:00 23.3 15 Norte 39 Norte 0 1016 0.6 82
2019-08-04 20:00:00 24 17 Noroeste 40 Noroeste 0 1015.9 0.7 82
2019-08-04 19:00:00 25.6 17 Noroeste 47 Norte 0 1015.3 0 78
2019-08-04 18:00:00 25.5 21 Noroeste 48 Norte 0 1015.4 -0.8 76
2019-08-04 17:00:00 26.5 17 Noroeste 56 Nordeste 0 1015.2 -1.5 72
2019-08-04 16:00:00 26.1 19 Noroeste 48 Noroeste 0 1015.3 -1.7 68
2019-08-04 15:00:00 26.9 15 Norte 48 Nordeste 0 1016.2 -1.1 64
2019-08-04 14:00:00 25.9 11 Noroeste 40 Norte 0 1016.7 0 66
2019-08-04 13:00:00 25.2 14 Norte 37 Norte 0 1017 0.5 69
2019-08-04 12:00:00 25.2 17 Noroeste 47 Noroeste 0 1017.3 1 69
2019-08-04 11:00:00 24.4 24 Norte 49 Norte 0 1016.7 0.4 68
2019-08-04 10:00:00 24.1 15 Noroeste 41 Noroeste 0 1016.5 0.5 71
2019-08-04 09:00:00 22.9 17 Norte 40 Noroeste 0 1016.3 0.4 76
2019-08-04 08:00:00 22.1 18 Norte 38 Noroeste 0 1016.3 0.7 79
2019-08-04 07:00:00 22 15 Norte 42 Norte 0 1016 0.1 79
2019-08-04 06:00:00 21.9 17 Noroeste 35 Noroeste 0 1015.9 -0.4 80
2019-08-04 05:00:00 22 15 Noroeste 40 Noroeste 0 1015.6 -0.7 78
2019-08-04 04:00:00 22 15 Norte 42 Noroeste 0 1015.9 -0.9 79
2019-08-04 03:00:00 22 15 Norte 48 Norte 0 1016.3 -0.5 79
2019-08-04 02:00:00 22.1 15 Norte 42 Oeste 0 1016.3 -0.3 80
2019-08-04 01:00:00 22.3 21 Noroeste 55 Noroeste 0 1016.8 0.8 80
2019-08-04 00:00:00 22.3 18 Norte 42 Noroeste 0 1016.8 1.1 79
2019-08-03 23:00:00 22.4 19 Norte 49 Noroeste 0 1016.6 1.3 79
2019-08-03 22:00:00 22.7 18 Norte 37 Noroeste 0 1016 0.8 77
2019-08-03 21:00:00 23.1 16 Noroeste 41 Noroeste 0 1015.7 0.2 75
2019-08-03 20:00:00 24.1 19 Noroeste 39 Noroeste 0 1015.3 -0.5 72
2019-08-03 19:00:00 24.5 18 Noroeste 48 Noroeste 0 1015.2 -1.3 72
2019-08-03 18:00:00 24.8 17 Noroeste 41 Oeste 0 1015.5 -1.5 72
2019-08-03 17:00:00 25.2 17 Noroeste 43 Noroeste 0 1015.8 -1.5 70
2019-08-03 16:00:00 25.3 15 Noroeste 46 Oeste 0 1016.5 -0.7 72
2019-08-03 15:00:00 25.2 17 Noroeste 43 Norte 0 1017 -0.4 72
2019-08-03 14:00:00 26.2 12 Norte 55 Nordeste 0 1017.3 0 70
2019-08-03 13:00:00 24.2 21 Norte 53 Norte 0 1017.2 0.4 72
2019-08-03 12:00:00 24.7 14 Norte 36 Norte 0 1017.4 1.1 75
2019-08-03 11:00:00 24.3 14 Norte 43 Norte 0 1017.3 1.1 77
2019-08-03 10:00:00 23.4 14 Norte 37 Norte 0 1016.8 1.1 78
2019-08-03 09:00:00 23 15 Norte 44 Oeste 0 1016.3 0.6 84
2019-08-03 08:00:00 22.4 16 Norte 39 Nordeste 0 1016.2 0.4 84
2019-08-03 07:00:00 22.3 21 Norte 44 Nordeste 0 1015.7 -0.2 80
2019-08-03 06:00:00 22.1 16 Norte 33 Norte 0 1015.7 -0.8 83
2019-08-03 05:00:00 22.3 14 Norte 35 Norte 0 1015.8 -0.8 80
2019-08-03 04:00:00 22.3 12 Norte 43 Nordeste 0 1015.9 -1 80
2019-08-03 03:00:00 22.3 18 Norte 35 Noroeste 0 1016.5 0 82
2019-08-03 02:00:00 22.4 15 Norte 39 Norte 0 1016.6 0.2 79
2019-08-03 01:00:00 22.5 16 Norte 53 Norte 0 1016.9 0.9 80
2019-08-03 00:00:00 22.7 15 Norte 39 Norte 0 1016.5 0.4 80
2019-08-02 23:00:00 22.7 17 Noroeste 42 Este 0 1016.4 0.5 77
2019-08-02 22:00:00 22.9 20 Norte 44 Norte 0 1016 0.2 77
2019-08-02 21:00:00 23.2 17 Norte 37 Noroeste 0 1016.1 0.2 77
2019-08-02 20:00:00 23.6 19 Noroeste 43 Norte 0 1015.9 -0.6 75
2019-08-02 19:00:00 24.6 17 Noroeste 46 Norte 0 1015.8 -0.8 75
2019-08-02 18:00:00 24.4 21 Noroeste 48 Norte 0 1015.9 -1.2 73
2019-08-02 17:00:00 25.3 17 Noroeste 44 Noroeste 0 1016.5 -1.1 71
2019-08-02 16:00:00 25.3 15 Noroeste 43 Norte 0 1016.6 -1.1 71
2019-08-02 15:00:00 25.9 15 Noroeste 41 Noroeste 0 1017.1 -0.4 68
2019-08-02 14:00:00 25.1 13 Norte 37 Oeste 0 1017.6 0.2 68
2019-08-02 13:00:00 25.3 17 Noroeste 42 Norte 0 1017.7 0.7 71
2019-08-02 12:00:00 24.3 18 Noroeste 45 Noroeste 0 1017.5 0.4 69
2019-08-02 11:00:00 24.9 13 Norte 41 Noroeste 0 1017.4 0.7 71
2019-08-02 10:00:00 23.7 14 Noroeste 39 Noroeste 0 1017 0.7 73
2019-08-02 09:00:00 22.6 10 Norte 31 Norte 0 1017.1 0.7 78
2019-08-02 08:00:00 22.1 15 Noroeste 33 Norte 0 1016.7 0.6 77
2019-08-02 07:00:00 21.9 17 Norte 37 Nordeste 0 1016.3 0.1 79
2019-08-02 06:00:00 21.7 13 Norte 34 Norte 0 1016.4 0 79
2019-08-02 05:00:00 21.9 13 Noroeste 32 Noroeste 0 1016.1 -0.1 80
2019-08-02 04:00:00 22.1 14 Norte 31 Norte 0 1016.2 -0.2 80
2019-08-02 03:00:00 22.2 18 Noroeste 45 Noroeste 0 1016.4 0 79
2019-08-02 02:00:00 22.2 16 Noroeste 40 Norte 0 1016.2 0.2 79
2019-08-02 01:00:00 22.1 19 Norte 43 Norte 0 1016.4 0.6 79
2019-08-02 00:00:00 22.3 16 Norte 40 Noroeste 0 1016.4 0.6 80
2019-08-01 23:00:00 22.5 21 Norte 45 Noroeste 0 1016 0.4 81
2019-08-01 22:00:00 22.5 17 Norte 44 Norte 0 1015.8 0.3 81
2019-08-01 21:00:00 22.5 18 Norte 43 Noroeste 0 1015.8 0.3 82
2019-08-01 20:00:00 23.5 15 Noroeste 39 Nordeste 0 1015.6 0.1 77
2019-08-01 19:00:00 24 17 Noroeste 44 Noroeste 0 1015.5 -0.3 81
2019-08-01 18:00:00 25.8 14 Noroeste 41 Noroeste 0 1015.5 -0.4 69
2019-08-01 17:00:00 26.3 13 Noroeste 37 Oeste 0 1015.5 -1 63
2019-08-01 16:00:00 25.5 14 Noroeste 49 Nordeste 0 1015.8 -0.8 66
2019-08-01 15:00:00 25.8 12 Noroeste 41 Noroeste 0 1015.9 -0.6 65
2019-08-01 14:00:00 25.5 13 Norte 40 Noroeste 0 1016.5 0.4 69
2019-08-01 13:00:00 24.3 15 Norte 42 Nordeste 0 1016.6 0.5 73
2019-08-01 12:00:00 24.2 14 Norte 40 Nordeste 0 1016.5 1 67
2019-08-01 11:00:00 24.3 14 Noroeste 35 Norte 0 1016.1 0.9 69
2019-08-01 10:00:00 23.2 16 Noroeste 36 Noroeste 0 1016.1 1.6 71
2019-08-01 09:00:00 22.5 16 Norte 36 Norte 0 1015.5 1.2 74
2019-08-01 08:00:00 21.6 11 Noroeste 40 Noroeste 0 1015.2 0.8 77
2019-08-01 07:00:00 21.5 15 Norte 38 Noroeste 0 1014.5 -0.3 77
2019-08-01 06:00:00 21.5 17 Norte 45 Norte 0 1014.3 -0.3 77
2019-08-01 05:00:00 21.6 22 Norte 52 Norte 0 1014.4 -0.5 79
2019-08-01 04:00:00 21.7 19 Norte 43 Norte 0 1014.8 -0.9 77
2019-08-01 03:00:00 21.7 19 Norte 44 Norte 0 1014.6 -1 82
2019-08-01 02:00:00 21.9 16 Noroeste 48 Noroeste 0 1014.9 -0.2 77
2019-08-01 01:00:00 21.9 20 Norte 47 Norte 0 1015.7 1 83
2019-08-01 00:00:00 22 19 Norte 50 Norte 0 1015.6 1.1 81
2019-07-31 23:00:00 22.1 19 Norte 62 Norte 0 1015.1 1 80
2019-07-31 22:00:00 22.2 22 Noroeste 45 Norte 0 1014.7 0.6 79
2019-07-31 21:00:00 22.4 20 Norte 52 Norte 0 1014.5 0.4 77
2019-07-31 20:00:00 22.5 20 Noroeste 48 Noroeste 0 1014.1 -0.3 79
2019-07-31 19:00:00 23.3 19 Norte 41 Noroeste 0 1014.1 -0.9 76
2019-07-31 18:00:00 23.5 19 Norte 45 Noroeste 0 1014.1 -1.4 77
2019-07-31 17:00:00 23.8 18 Norte 52 Norte 0 1014.4 -1.5 74
2019-07-31 16:00:00 23.4 17 Norte 53 Nordeste 0 1015 -1.2 71
2019-07-31 15:00:00 24.2 15 Norte 49 Nordeste 0 1015.5 -0.4 71
2019-07-31 14:00:00 25 14 Norte 44 Norte 0 1015.9 0.5 69
2019-07-31 13:00:00 24.4 15 Norte 43 Norte 0 1016.2 1 71
2019-07-31 12:00:00 24 15 Noroeste 47 Noroeste 0 1015.9 1.1 70
2019-07-31 11:00:00 23.6 18 Noroeste 50 Norte 0 1015.4 1.2 70
2019-07-31 10:00:00 22.8 17 Norte 45 Norte 0 1015.2 1.2 76
2019-07-31 09:00:00 22.2 19 Norte 44 Nordeste 0 1014.8 1.2 75
2019-07-31 08:00:00 21.5 20 Norte 49 Oeste 0 1014.2 0.5 77
2019-07-31 07:00:00 21.9 20 Norte 55 Norte 0 1014 0.4 71
2019-07-31 06:00:00 21.5 22 Norte 55 Noroeste 0 1013.6 -0.9 81
2019-07-31 05:00:00 21.5 24 Norte 57 Norte 0 1013.7 -1.5 80
2019-07-31 04:00:00 21.4 21 Norte 60 Norte 0 1013.6 -2.2 84
2019-07-31 03:00:00 21.7 23 Norte 51 Nordeste 0 1014.5 -1.6 77
2019-07-31 02:00:00 21.7 22 Noroeste 59 Noroeste 0 1015.2 -0.6 81
2019-07-31 01:00:00 22 20 Norte 52 Noroeste 0 1015.8 0.3 81
2019-07-31 00:00:00 21.9 22 Norte 50 Norte 0 1016.1 0.8 82
2019-07-30 23:00:00 22.2 21 Norte 60 Norte 0 1015.8 0.7 81
2019-07-30 22:00:00 22.2 26 Norte 59 Norte 0 1015.5 0.7 83
2019-07-30 21:00:00 22.2 26 Noroeste 59 Norte 0 1015.3 0.6 82
2019-07-30 20:00:00 22.5 25 Noroeste 62 Norte 0 1015.1 -0.2 80
2019-07-30 19:00:00 22.7 26 Noroeste 61 Noroeste 0 1014.8 -0.6 83
2019-07-30 18:00:00 23.1 26 Noroeste 61 Noroeste 0 1014.7 -1.3 79
2019-07-30 17:00:00 23.3 21 Norte 50 Oeste 0 1015.3 -0.9 81
2019-07-30 16:00:00 24.8 22 Noroeste 50 Noroeste 0 1015.4 -1.3 75
2019-07-30 15:00:00 24.9 18 Noroeste 58 Norte 0 1016 -0.9 73
2019-07-30 14:00:00 24.7 23 Norte 51 Norte 0 1016.2 -0.5 72
2019-07-30 13:00:00 24.1 13 Noroeste 55 Oeste 0 1016.7 0 79
2019-07-30 12:00:00 23.7 27 Noroeste 67 Norte 0 1016.9 0.5 83
2019-07-30 11:00:00 22.2 21 Noroeste 53 Noroeste 0 1016.7 0.9 90
2019-07-30 10:00:00 23.2 21 Norte 45 Noroeste 0 1016.7 1.6 83
2019-07-30 09:00:00 22.3 19 Norte 52 Nordeste 0 1016.4 1.6 89
2019-07-30 08:00:00 22.5 18 Norte 50 Norte 0 1015.8 1.1 90
2019-07-30 07:00:00 23 20 Norte 51 Noroeste 0 1015.1 -0.2 86
2019-07-30 06:00:00 23.6 21 Norte 53 Noroeste 0 1014.8 -0.2 80
2019-07-30 05:00:00 23.1 23 Norte 63 Noroeste 0 1014.7 -1 85
2019-07-30 04:00:00 22.9 23 Norte 58 Nordeste 0 1015.3 -0.6 84
2019-07-30 03:00:00 23.4 22 Noroeste 56 Noroeste 0 1015 -0.6 81
2019-07-30 02:00:00 23.2 22 Noroeste 64 Norte 0 1015.7 -0.3 80
2019-07-30 01:00:00 24 26 Norte 63 Noroeste 0 1015.9 0.9 75
2019-07-30 00:00:00 23.7 31 Norte 66 Noroeste 0 1015.6 0.9 77
2019-07-29 23:00:00 23.2 27 Norte 59 Noroeste 0 1016 1.2 82
2019-07-29 22:00:00 23.7 32 Norte 60 Norte 0 1015 0.5 76
2019-07-29 21:00:00 23.5 31 Norte 68 Norte 0 1014.7 0.1 77
2019-07-29 20:00:00 24.4 20 Noroeste 55 Oeste 0 1014.8 -0.1 72
2019-07-29 19:00:00 24.2 23 Noroeste 52 Norte 0 1014.5 -0.6 72
2019-07-29 18:00:00 24.6 20 Noroeste 55 Oeste 0 1014.6 -0.6 73
2019-07-29 17:00:00 24.3 18 Noroeste 61 Noroeste 0 1014.9 -0.6 73
2019-07-29 16:00:00 25.5 18 Noroeste 50 Noroeste 0 1015.1 -0.8 71
2019-07-29 15:00:00 25.2 18 Noroeste 49 Noroeste 0 1015.2 -0.4 69
2019-07-29 14:00:00 25.1 21 Noroeste 50 Nordeste 0 1015.5 0 68
2019-07-29 13:00:00 24.8 16 Noroeste 48 Noroeste 0 1015.9 0.9 71
2019-07-29 12:00:00 24.5 16 Norte 53 Norte 0 1015.6 1 73
2019-07-29 11:00:00 24.5 16 Norte 49 Noroeste 0 1015.5 1.1 74
2019-07-29 10:00:00 23.4 18 Norte 42 Norte 0 1015 1.1 74
2019-07-29 09:00:00 22.9 19 Norte 43 Noroeste 0 1014.6 0.8 76
2019-07-29 08:00:00 22.3 17 Norte 38 Nordeste 0 1014.4 0.6 78
2019-07-29 07:00:00 22.3 15 Norte 35 Noroeste 0 1013.9 0.1 78
2019-07-29 06:00:00 22.4 15 Norte 39 Noroeste 0 1013.8 -0.2 79
2019-07-29 05:00:00 22.6 17 Noroeste 39 Norte 0 1013.8 -0.3 80
2019-07-29 04:00:00 22.6 15 Norte 42 Norte 0 1013.8 -0.3 80
2019-07-29 03:00:00 22.8 13 Norte 42 Noroeste 0 1014 -0.2 79
2019-07-29 02:00:00 22.8 20 Norte 44 Norte 0 1014.1 0.1 80
2019-07-29 01:00:00 23 23 Norte 50 Norte 0 1014.1 0.3 78
2019-07-29 00:00:00 22.9 18 Norte 42 Norte 0 1014.2 0.9 82
2019-07-28 23:00:00 23.3 15 Noroeste 38 Noroeste 0 1014 1.1 80
2019-07-28 22:00:00 23.4 15 Noroeste 39 Noroeste 0 1013.8 1.7 80
2019-07-28 21:00:00 24.2 14 Noroeste 45 Norte 0 1013.3 1.4 81
2019-07-28 20:00:00 24.5 18 Norte 40 Norte 0 1012.9 0.6 81
2019-07-28 19:00:00 25.4 17 Noroeste 47 Noroeste 0 1012.1 -0.4 77
2019-07-28 18:00:00 25.9 19 Noroeste 49 Oeste 0 1011.9 -0.6 78
2019-07-28 17:00:00 26 21 Noroeste 40 Oeste 0 1012.3 -0.2 78
2019-07-28 16:00:00 25.7 18 Noroeste 48 Oeste 0 1012.5 -0.7 81
2019-07-28 15:00:00 27.2 18 Noroeste 46 Norte 0 1012.5 -0.8 72
2019-07-28 14:00:00 26.7 22 Noroeste 47 Noroeste 0 1012.5 -0.8 75
2019-07-28 13:00:00 25.8 18 Noroeste 48 Noroeste 0 1013.2 -0.2 78
2019-07-28 12:00:00 24.9 22 Norte 48 Noroeste 0 1013.3 0 78
2019-07-28 11:00:00 25.1 20 Noroeste 48 Norte 0 1013.3 0.3 78
2019-07-28 10:00:00 23.9 19 Norte 48 Norte 0 1013.4 0.6 80
2019-07-28 09:00:00 23.2 19 Norte 44 Oeste 0 1013.3 1.1 83
2019-07-28 08:00:00 22.6 17 Norte 45 Noroeste 0 1013 0.5 84
2019-07-28 07:00:00 22.5 19 Norte 50 Norte 0 1012.8 -0.1 86
2019-07-28 06:00:00 22.3 21 Norte 58 Norte 0 1012.2 -1.2 87
2019-07-28 05:00:00 22.4 22 Noroeste 53 Norte 0 1012.5 -1.5 87
2019-07-28 04:00:00 22.1 20 Noroeste 51 Oeste 0 1012.9 -1.5 86
2019-07-28 03:00:00 22.2 18 Noroeste 46 Noroeste 0 1013.4 -1.2 81
2019-07-28 02:00:00 22.2 20 Norte 44 Noroeste 0 1014 -0.8 78
2019-07-28 01:00:00 22.5 23 Norte 45 Norte 0 1014.4 -0.1 78
2019-07-28 00:00:00 22.7 23 Norte 52 Norte 0 1014.6 0.6 78
2019-07-27 23:00:00 22.7 21 Norte 50 Norte 0 1014.8 0.6 79
2019-07-27 22:00:00 22.7 24 Norte 44 Norte 0 1014.5 0.1 79
2019-07-26 11:00:00 25.3 18 Norte 51 Norte 0 1014.5 0.6 71
2019-07-26 10:00:00 24.9 23 Norte 50 Norte 0 1014.5 0.9 74
2019-07-26 09:00:00 24.8 20 Norte 55 Nordeste 0 1014.1 0.5 70
2019-07-26 08:00:00 24.4 17 Norte 43 Norte 0 1013.9 0.3 71
2019-07-26 07:00:00 23.6 19 Noroeste 52 Noroeste 0 1013.6 0 79
2019-07-26 06:00:00 24.2 16 Norte 49 Norte 0 1013.6 -0.3 72
2019-07-26 05:00:00 23.9 16 Norte 40 Noroeste 0 1013.6 -0.3 77
2019-07-26 04:00:00 24.3 14 Norte 49 Noroeste 0 1013.6 -0.7 77
2019-07-26 03:00:00 24 19 Noroeste 49 Oeste 0 1013.9 -0.8 79
2019-07-26 02:00:00 24.4 22 Noroeste 55 Noroeste 0 1013.9 -0.3 74
2019-07-26 01:00:00 24.7 19 Noroeste 45 Noroeste 0 1014.3 0.9 67
2019-07-26 00:00:00 24.3 20 Noroeste 45 Noroeste 0 1014.7 1.8 71
2019-07-25 23:00:00 24.2 26 Noroeste 55 Noroeste 0 1014.2 1.6 72
2019-07-25 22:00:00 24.9 23 Noroeste 51 Oeste 0 1013.4 1.1 62
2019-07-25 21:00:00 26.9 18 Noroeste 48 Noroeste 0 1012.9 -0.3 42
2019-07-25 20:00:00 28.4 21 Norte 46 Nordeste 0 1012.6 -0.3 42
2019-07-25 19:00:00 30.1 19 Norte 49 Norte 0 1012.3 -0.8 35
2019-07-25 18:00:00 25.3 8 Sudeste 25 Sur 0 1013.2 0.1 80
2019-07-25 17:00:00 26.2 5 Este 27 Nordeste 0 1012.9 -0.9 67
2019-07-25 16:00:00 24.5 13 Sudeste 28 Sur 0 1013.1 -0.9 83
2019-07-25 15:00:00 24.7 7 Sudeste 29 Sur 0 1013.1 -0.7 78
2019-07-25 14:00:00 27 6 Sur 36 Norte 0 1013.8 0.3 55
2019-07-25 13:00:00 26.4 0 Calma 34 Sudeste 0 1014 0.3 65
2019-07-25 12:00:00 28.9 12 Norte 39 Norte 0 1013.8 0.8 41
2019-07-25 11:00:00 27.1 20 Norte 51 Norte 0 1013.5 0.9 48
2019-07-25 10:00:00 25.1 25 Norte 44 Norte 0 1013.7 1.3 52
2019-07-25 09:00:00 26.5 19 Norte 39 Norte 0 1013 0.8 40
2019-07-25 08:00:00 26 18 Norte 41 Norte 0 1012.6 0.4 41
2019-07-25 07:00:00 25.6 15 Norte 35 Norte 0 1012.4 0 43
2019-07-25 06:00:00 25.5 13 Noroeste 33 Norte 0 1012.2 -0.6 45
2019-07-25 05:00:00 25.6 16 Norte 37 Noroeste 0 1012.2 -0.9 47
2019-07-25 04:00:00 24.7 18 Noroeste -- -- -- 1012.4 -1.1 51
2019-07-25 03:00:00 24.4 20 Norte -- -- -- 1012.8 -0.5 55
2019-07-25 02:00:00 25.1 17 Norte 50 Norte 0 1013.1 0 51
2019-07-25 01:00:00 25.1 23 Norte 52 Noroeste 0 1013.5 0.6 53
2019-07-25 00:00:00 25.6 17 Norte 49 Norte 0 1013.3 0.8 50
2019-07-24 23:00:00 25.9 18 Norte 47 Norte 0 1013.1 1 50
2019-07-24 22:00:00 25.9 17 Norte 43 Oeste 0 1012.9 1.1 50
2019-07-24 21:00:00 26.4 18 Noroeste 49 Norte 0 1012.5 0.2 47
2019-07-24 20:00:00 27.1 18 Norte 43 Nordeste 0 1012.1 -0.6 51
2019-07-24 19:00:00 27.9 15 Norte 46 Norte 0 1011.8 -1.1 54
2019-07-24 18:00:00 25.9 26 Norte 46 Nordeste 0 1012.3 -1 67
2019-07-24 17:00:00 26.2 8 Nordeste 28 Este 0 1012.7 -0.8 66
2019-07-24 16:00:00 23.6 15 Sur 25 Sur 0 1012.9 -1 86
2019-07-24 15:00:00 24 10 Sudeste 40 Norte 0 1013.3 -0.7 82
2019-07-24 14:00:00 26.9 13 Norte 48 Norte 0 1013.5 0.4 64
2019-07-24 13:00:00 23.8 29 Norte 56 Norte 0 1013.9 0.6 77
2019-07-24 12:00:00 23.9 32 Norte 60 Nordeste 0 1014 0.6 76
2019-07-24 11:00:00 23.6 24 Norte 52 Este 0 1013.1 0.2 74
2019-07-24 10:00:00 22.7 22 Norte 58 Nordeste 0 1013.3 0.6 78
2019-07-24 09:00:00 22.1 22 Norte 45 Norte 0 1013.4 1.1 80
2019-07-24 08:00:00 21.7 25 Norte 51 Norte 0 1012.9 0.5 79
2019-07-24 07:00:00 22.1 23 Norte 45 Norte 0 1012.7 0.4 76
2019-07-24 06:00:00 22.1 21 Norte 42 Norte 0 1012.3 -0.9 77
2019-07-24 05:00:00 22 19 Norte 52 Norte 0 1012.4 -1.7 78
2019-07-24 04:00:00 22.3 17 Noroeste 40 Noroeste 0 1012.3 -2.3 77
2019-07-24 03:00:00 22 17 Norte 48 Norte 0 1013.2 -1.6 80
2019-07-24 02:00:00 22 21 Norte 51 Norte 0 1014.1 -0.8 81
2019-07-24 01:00:00 22.2 23 Norte 51 Norte 0 1014.6 0.1 78
2019-07-24 00:00:00 22.2 22 Norte 48 Norte 0 1014.8 0.5 79